sensor_id;sensor_type;location;lat;lon;timestamp;P1;durP1;ratioP1;P2;durP2;ratioP2
47784;SDS011;35233;55.686;37.848;2023-02-03T00:02:20;15.95;;;9.75;;
47784;SDS011;35233;55.686;37.848;2023-02-03T00:04:46;15.63;;;10.43;;
47784;SDS011;35233;55.686;37.848;2023-02-03T00:07:11;15.50;;;10.38;;
47784;SDS011;35233;55.686;37.848;2023-02-03T00:09:39;15.80;;;10.02;;
47784;SDS011;35233;55.686;37.848;2023-02-03T00:12:08;15.10;;;10.60;;
47784;SDS011;35233;55.686;37.848;2023-02-03T00:14:36;15.88;;;10.30;;
47784;SDS011;35233;55.686;37.848;2023-02-03T00:17:02;16.10;;;10.35;;
47784;SDS011;35233;55.686;37.848;2023-02-03T00:19:28;15.40;;;10.30;;
47784;SDS011;35233;55.686;37.848;2023-02-03T00:21:53;15.43;;;10.25;;
47784;SDS011;35233;55.686;37.848;2023-02-03T00:24:22;17.42;;;10.80;;
47784;SDS011;35233;55.686;37.848;2023-02-03T00:26:48;15.13;;;10.30;;
47784;SDS011;35233;55.686;37.848;2023-02-03T00:29:14;15.35;;;10.52;;
47784;SDS011;35233;55.686;37.848;2023-02-03T00:31:48;15.15;;;10.63;;
47784;SDS011;35233;55.686;37.848;2023-02-03T00:34:14;15.88;;;10.40;;
47784;SDS011;35233;55.686;37.848;2023-02-03T00:36:40;16.52;;;10.75;;
47784;SDS011;35233;55.686;37.848;2023-02-03T00:39:05;16.85;;;10.75;;
47784;SDS011;35233;55.686;37.848;2023-02-03T00:41:31;14.60;;;10.38;;
47784;SDS011;35233;55.686;37.848;2023-02-03T00:43:56;15.90;;;10.68;;
47784;SDS011;35233;55.686;37.848;2023-02-03T00:46:22;15.00;;;10.13;;
47784;SDS011;35233;55.686;37.848;2023-02-03T00:48:47;13.82;;;10.23;;
47784;SDS011;35233;55.686;37.848;2023-02-03T00:51:13;14.93;;;10.77;;
47784;SDS011;35233;55.686;37.848;2023-02-03T00:53:38;15.38;;;10.55;;
47784;SDS011;35233;55.686;37.848;2023-02-03T00:56:04;16.63;;;10.77;;
47784;SDS011;35233;55.686;37.848;2023-02-03T00:58:36;14.93;;;10.25;;
47784;SDS011;35233;55.686;37.848;2023-02-03T01:01:05;15.38;;;9.95;;
47784;SDS011;35233;55.686;37.848;2023-02-03T01:03:31;13.77;;;9.68;;
47784;SDS011;35233;55.686;37.848;2023-02-03T01:06:07;14.80;;;10.48;;
47784;SDS011;35233;55.686;37.848;2023-02-03T01:08:43;16.33;;;10.93;;
47784;SDS011;35233;55.686;37.848;2023-02-03T01:11:13;16.92;;;11.25;;
47784;SDS011;35233;55.686;37.848;2023-02-03T01:13:43;14.40;;;10.38;;
47784;SDS011;35233;55.686;37.848;2023-02-03T01:16:09;15.55;;;9.85;;
47784;SDS011;35233;55.686;37.848;2023-02-03T01:18:36;16.08;;;10.80;;
47784;SDS011;35233;55.686;37.848;2023-02-03T01:21:05;14.90;;;10.02;;
47784;SDS011;35233;55.686;37.848;2023-02-03T01:23:35;16.52;;;11.05;;
47784;SDS011;35233;55.686;37.848;2023-02-03T01:26:04;14.38;;;9.80;;
47784;SDS011;35233;55.686;37.848;2023-02-03T01:28:31;15.90;;;10.45;;
47784;SDS011;35233;55.686;37.848;2023-02-03T01:30:57;17.40;;;10.15;;
47784;SDS011;35233;55.686;37.848;2023-02-03T01:36:11;13.90;;;9.73;;
47784;SDS011;35233;55.686;37.848;2023-02-03T01:38:37;14.48;;;9.85;;
47784;SDS011;35233;55.686;37.848;2023-02-03T01:41:04;15.20;;;10.35;;
47784;SDS011;35233;55.686;37.848;2023-02-03T01:43:32;15.18;;;10.70;;
47784;SDS011;35233;55.686;37.848;2023-02-03T01:46:02;14.52;;;10.55;;
47784;SDS011;35233;55.686;37.848;2023-02-03T01:48:31;15.02;;;10.82;;
47784;SDS011;35233;55.686;37.848;2023-02-03T01:51:01;14.02;;;10.27;;
47784;SDS011;35233;55.686;37.848;2023-02-03T01:53:29;15.00;;;9.73;;
47784;SDS011;35233;55.686;37.848;2023-02-03T01:55:55;16.67;;;10.73;;
47784;SDS011;35233;55.686;37.848;2023-02-03T01:58:23;16.33;;;10.25;;
47784;SDS011;35233;55.686;37.848;2023-02-03T02:00:52;16.38;;;10.50;;
47784;SDS011;35233;55.686;37.848;2023-02-03T02:03:20;15.00;;;10.38;;
47784;SDS011;35233;55.686;37.848;2023-02-03T02:05:53;14.13;;;10.25;;
47784;SDS011;35233;55.686;37.848;2023-02-03T02:08:24;14.50;;;10.07;;
47784;SDS011;35233;55.686;37.848;2023-02-03T02:10:51;15.07;;;10.40;;
47784;SDS011;35233;55.686;37.848;2023-02-03T02:13:18;17.00;;;10.05;;
47784;SDS011;35233;55.686;37.848;2023-02-03T02:15:57;17.23;;;10.77;;
47784;SDS011;35233;55.686;37.848;2023-02-03T02:26:53;15.57;;;10.68;;
47784;SDS011;35233;55.686;37.848;2023-02-03T02:41:28;15.27;;;9.90;;
47784;SDS011;35233;55.686;37.848;2023-02-03T02:46:53;14.70;;;9.93;;
47784;SDS011;35233;55.686;37.848;2023-02-03T02:49:26;14.93;;;10.40;;
47784;SDS011;35233;55.686;37.848;2023-02-03T02:51:57;15.32;;;10.15;;
47784;SDS011;35233;55.686;37.848;2023-02-03T02:54:26;13.48;;;9.27;;
47784;SDS011;35233;55.686;37.848;2023-02-03T02:56:55;14.80;;;10.68;;
47784;SDS011;35233;55.686;37.848;2023-02-03T02:59:25;15.52;;;10.52;;
47784;SDS011;35233;55.686;37.848;2023-02-03T03:01:50;14.18;;;9.60;;
47784;SDS011;35233;55.686;37.848;2023-02-03T03:04:17;15.40;;;10.35;;
47784;SDS011;35233;55.686;37.848;2023-02-03T03:06:48;14.93;;;10.38;;
47784;SDS011;35233;55.686;37.848;2023-02-03T03:09:21;16.45;;;10.50;;
47784;SDS011;35233;55.686;37.848;2023-02-03T03:11:55;15.27;;;9.98;;
47784;SDS011;35233;55.686;37.848;2023-02-03T03:14:27;15.35;;;9.82;;
47784;SDS011;35233;55.686;37.848;2023-02-03T03:16:59;14.65;;;9.93;;
47784;SDS011;35233;55.686;37.848;2023-02-03T03:19:40;15.60;;;10.55;;
47784;SDS011;35233;55.686;37.848;2023-02-03T03:22:12;15.18;;;10.05;;
47784;SDS011;35233;55.686;37.848;2023-02-03T03:24:44;13.70;;;9.27;;
47784;SDS011;35233;55.686;37.848;2023-02-03T03:27:15;14.82;;;9.80;;
47784;SDS011;35233;55.686;37.848;2023-02-03T03:32:19;15.20;;;10.02;;
47784;SDS011;35233;55.686;37.848;2023-02-03T03:34:45;15.55;;;10.13;;
47784;SDS011;35233;55.686;37.848;2023-02-03T03:37:14;21.30;;;10.60;;
47784;SDS011;35233;55.686;37.848;2023-02-03T03:45:14;15.68;;;9.98;;
47784;SDS011;35233;55.686;37.848;2023-02-03T03:47:56;15.48;;;10.80;;
47784;SDS011;35233;55.686;37.848;2023-02-03T03:50:29;15.27;;;10.02;;
47784;SDS011;35233;55.686;37.848;2023-02-03T03:53:09;16.98;;;10.88;;
47784;SDS011;35233;55.686;37.848;2023-02-03T03:55:37;15.30;;;10.30;;
47784;SDS011;35233;55.686;37.848;2023-02-03T03:58:05;14.50;;;10.02;;
47784;SDS011;35233;55.686;37.848;2023-02-03T04:00:35;13.70;;;9.70;;
47784;SDS011;35233;55.686;37.848;2023-02-03T04:03:14;15.38;;;10.48;;
47784;SDS011;35233;55.686;37.848;2023-02-03T04:05:43;15.82;;;11.25;;
47784;SDS011;35233;55.686;37.848;2023-02-03T04:08:10;15.07;;;9.95;;
47784;SDS011;35233;55.686;37.848;2023-02-03T04:10:36;15.00;;;10.25;;
47784;SDS011;35233;55.686;37.848;2023-02-03T04:13:06;14.65;;;10.45;;
47784;SDS011;35233;55.686;37.848;2023-02-03T04:15:33;15.15;;;10.00;;
47784;SDS011;35233;55.686;37.848;2023-02-03T04:17:59;15.65;;;10.32;;
47784;SDS011;35233;55.686;37.848;2023-02-03T04:20:26;16.27;;;11.00;;
47784;SDS011;35233;55.686;37.848;2023-02-03T04:22:52;20.33;;;10.70;;
47784;SDS011;35233;55.686;37.848;2023-02-03T04:25:18;17.30;;;10.85;;
47784;SDS011;35233;55.686;37.848;2023-02-03T04:27:44;16.33;;;10.40;;
47784;SDS011;35233;55.686;37.848;2023-02-03T04:30:10;15.32;;;10.40;;
47784;SDS011;35233;55.686;37.848;2023-02-03T04:32:37;17.17;;;11.07;;
47784;SDS011;35233;55.686;37.848;2023-02-03T04:35:03;15.60;;;10.75;;
47784;SDS011;35233;55.686;37.848;2023-02-03T04:37:31;16.35;;;11.05;;
47784;SDS011;35233;55.686;37.848;2023-02-03T04:39:56;16.27;;;10.57;;
47784;SDS011;35233;55.686;37.848;2023-02-03T04:42:23;15.50;;;10.88;;
47784;SDS011;35233;55.686;37.848;2023-02-03T04:44:49;16.67;;;10.63;;
47784;SDS011;35233;55.686;37.848;2023-02-03T04:47:15;18.52;;;11.00;;
47784;SDS011;35233;55.686;37.848;2023-02-03T04:49:42;16.35;;;10.55;;
47784;SDS011;35233;55.686;37.848;2023-02-03T04:52:07;15.52;;;10.20;;
47784;SDS011;35233;55.686;37.848;2023-02-03T04:54:33;14.18;;;9.88;;
47784;SDS011;35233;55.686;37.848;2023-02-03T04:56:59;15.38;;;11.15;;
47784;SDS011;35233;55.686;37.848;2023-02-03T04:59:25;17.95;;;11.02;;
47784;SDS011;35233;55.686;37.848;2023-02-03T05:01:51;17.83;;;11.43;;
47784;SDS011;35233;55.686;37.848;2023-02-03T05:04:16;16.00;;;10.95;;
47784;SDS011;35233;55.686;37.848;2023-02-03T05:06:42;17.52;;;10.73;;
47784;SDS011;35233;55.686;37.848;2023-02-03T05:09:08;15.13;;;10.48;;
47784;SDS011;35233;55.686;37.848;2023-02-03T05:11:33;16.23;;;10.63;;
47784;SDS011;35233;55.686;37.848;2023-02-03T05:13:59;16.50;;;10.57;;
47784;SDS011;35233;55.686;37.848;2023-02-03T05:16:25;16.00;;;10.77;;
47784;SDS011;35233;55.686;37.848;2023-02-03T05:18:50;14.93;;;10.68;;
47784;SDS011;35233;55.686;37.848;2023-02-03T05:21:16;17.88;;;11.55;;
47784;SDS011;35233;55.686;37.848;2023-02-03T05:23:42;15.43;;;10.77;;
47784;SDS011;35233;55.686;37.848;2023-02-03T05:26:07;16.30;;;10.65;;
47784;SDS011;35233;55.686;37.848;2023-02-03T05:28:33;16.17;;;11.05;;
47784;SDS011;35233;55.686;37.848;2023-02-03T05:30:59;16.17;;;10.43;;
47784;SDS011;35233;55.686;37.848;2023-02-03T05:33:25;17.08;;;10.73;;
47784;SDS011;35233;55.686;37.848;2023-02-03T05:35:51;15.85;;;10.80;;
47784;SDS011;35233;55.686;37.848;2023-02-03T05:38:17;15.77;;;10.35;;
47784;SDS011;35233;55.686;37.848;2023-02-03T05:40:42;18.02;;;11.15;;
47784;SDS011;35233;55.686;37.848;2023-02-03T05:43:27;15.38;;;10.27;;
47784;SDS011;35233;55.686;37.848;2023-02-03T05:45:53;20.30;;;11.95;;
47784;SDS011;35233;55.686;37.848;2023-02-03T05:48:18;17.25;;;11.07;;
47784;SDS011;35233;55.686;37.848;2023-02-03T05:50:44;18.67;;;10.98;;
47784;SDS011;35233;55.686;37.848;2023-02-03T05:53:10;16.10;;;11.25;;
47784;SDS011;35233;55.686;37.848;2023-02-03T05:55:36;18.17;;;10.95;;
47784;SDS011;35233;55.686;37.848;2023-02-03T05:58:02;17.75;;;11.60;;
47784;SDS011;35233;55.686;37.848;2023-02-03T06:00:28;16.48;;;11.50;;
47784;SDS011;35233;55.686;37.848;2023-02-03T06:02:55;15.93;;;11.00;;
47784;SDS011;35233;55.686;37.848;2023-02-03T06:05:23;16.40;;;11.38;;
47784;SDS011;35233;55.686;37.848;2023-02-03T06:07:49;16.85;;;11.75;;
47784;SDS011;35233;55.686;37.848;2023-02-03T06:10:15;18.98;;;11.52;;
47784;SDS011;35233;55.686;37.848;2023-02-03T06:12:41;18.17;;;11.18;;
47784;SDS011;35233;55.686;37.848;2023-02-03T06:15:07;18.30;;;12.02;;
47784;SDS011;35233;55.686;37.848;2023-02-03T06:17:33;20.15;;;12.25;;
47784;SDS011;35233;55.686;37.848;2023-02-03T06:20:10;15.95;;;10.73;;
47784;SDS011;35233;55.686;37.848;2023-02-03T06:22:38;18.00;;;11.70;;
47784;SDS011;35233;55.686;37.848;2023-02-03T06:25:03;17.17;;;11.77;;
47784;SDS011;35233;55.686;37.848;2023-02-03T06:27:29;19.02;;;11.63;;
47784;SDS011;35233;55.686;37.848;2023-02-03T06:29:55;17.90;;;11.15;;
47784;SDS011;35233;55.686;37.848;2023-02-03T06:32:20;17.30;;;10.93;;
47784;SDS011;35233;55.686;37.848;2023-02-03T06:34:46;17.58;;;11.52;;
47784;SDS011;35233;55.686;37.848;2023-02-03T06:37:14;16.35;;;11.13;;
47784;SDS011;35233;55.686;37.848;2023-02-03T06:39:40;17.40;;;11.35;;
47784;SDS011;35233;55.686;37.848;2023-02-03T06:42:06;19.40;;;12.27;;
47784;SDS011;35233;55.686;37.848;2023-02-03T06:44:31;19.98;;;13.02;;
47784;SDS011;35233;55.686;37.848;2023-02-03T06:46:57;18.52;;;11.80;;
47784;SDS011;35233;55.686;37.848;2023-02-03T06:49:23;18.45;;;11.85;;
47784;SDS011;35233;55.686;37.848;2023-02-03T06:51:49;17.85;;;11.93;;
47784;SDS011;35233;55.686;37.848;2023-02-03T06:54:16;20.67;;;12.32;;
47784;SDS011;35233;55.686;37.848;2023-02-03T06:56:42;17.77;;;11.90;;
47784;SDS011;35233;55.686;37.848;2023-02-03T06:59:08;17.90;;;12.55;;
47784;SDS011;35233;55.686;37.848;2023-02-03T07:01:34;20.73;;;11.82;;
47784;SDS011;35233;55.686;37.848;2023-02-03T07:04:00;18.50;;;12.60;;
47784;SDS011;35233;55.686;37.848;2023-02-03T07:06:26;17.90;;;11.65;;
47784;SDS011;35233;55.686;37.848;2023-02-03T07:08:55;18.63;;;12.48;;
47784;SDS011;35233;55.686;37.848;2023-02-03T07:11:24;17.52;;;11.40;;
47784;SDS011;35233;55.686;37.848;2023-02-03T07:13:50;18.05;;;11.73;;
47784;SDS011;35233;55.686;37.848;2023-02-03T07:16:16;20.73;;;12.50;;
47784;SDS011;35233;55.686;37.848;2023-02-03T07:18:42;18.00;;;12.70;;
47784;SDS011;35233;55.686;37.848;2023-02-03T07:21:08;20.48;;;11.88;;
47784;SDS011;35233;55.686;37.848;2023-02-03T07:23:33;20.55;;;12.10;;
47784;SDS011;35233;55.686;37.848;2023-02-03T07:26:02;18.08;;;11.32;;
47784;SDS011;35233;55.686;37.848;2023-02-03T07:28:30;19.30;;;11.48;;
47784;SDS011;35233;55.686;37.848;2023-02-03T07:30:56;21.55;;;12.50;;
47784;SDS011;35233;55.686;37.848;2023-02-03T07:33:22;19.98;;;11.98;;
47784;SDS011;35233;55.686;37.848;2023-02-03T07:35:54;19.48;;;12.40;;
47784;SDS011;35233;55.686;37.848;2023-02-03T07:38:21;20.75;;;12.00;;
47784;SDS011;35233;55.686;37.848;2023-02-03T07:40:47;19.15;;;12.40;;
47784;SDS011;35233;55.686;37.848;2023-02-03T07:43:13;16.63;;;11.70;;
47784;SDS011;35233;55.686;37.848;2023-02-03T07:45:39;20.33;;;12.93;;
47784;SDS011;35233;55.686;37.848;2023-02-03T07:48:05;21.30;;;13.00;;
47784;SDS011;35233;55.686;37.848;2023-02-03T07:50:31;18.55;;;11.57;;
47784;SDS011;35233;55.686;37.848;2023-02-03T07:52:59;18.35;;;12.10;;
47784;SDS011;35233;55.686;37.848;2023-02-03T07:55:25;20.77;;;13.02;;
47784;SDS011;35233;55.686;37.848;2023-02-03T07:57:57;21.08;;;12.07;;
47784;SDS011;35233;55.686;37.848;2023-02-03T08:00:23;22.08;;;13.32;;
47784;SDS011;35233;55.686;37.848;2023-02-03T08:02:49;29.50;;;13.90;;
47784;SDS011;35233;55.686;37.848;2023-02-03T08:05:15;21.20;;;13.30;;
47784;SDS011;35233;55.686;37.848;2023-02-03T08:07:40;21.45;;;13.30;;
47784;SDS011;35233;55.686;37.848;2023-02-03T08:10:06;19.92;;;12.88;;
47784;SDS011;35233;55.686;37.848;2023-02-03T08:12:33;21.90;;;14.38;;
47784;SDS011;35233;55.686;37.848;2023-02-03T08:14:59;20.52;;;14.52;;
47784;SDS011;35233;55.686;37.848;2023-02-03T08:17:24;20.80;;;14.02;;
47784;SDS011;35233;55.686;37.848;2023-02-03T08:19:50;21.42;;;14.02;;
47784;SDS011;35233;55.686;37.848;2023-02-03T08:22:16;25.17;;;14.82;;
47784;SDS011;35233;55.686;37.848;2023-02-03T08:24:42;23.85;;;14.27;;
47784;SDS011;35233;55.686;37.848;2023-02-03T08:27:16;20.80;;;14.57;;
47784;SDS011;35233;55.686;37.848;2023-02-03T08:29:44;22.90;;;14.13;;
47784;SDS011;35233;55.686;37.848;2023-02-03T08:32:13;22.23;;;14.35;;
47784;SDS011;35233;55.686;37.848;2023-02-03T08:34:40;23.02;;;14.65;;
47784;SDS011;35233;55.686;37.848;2023-02-03T08:37:06;22.85;;;14.98;;
47784;SDS011;35233;55.686;37.848;2023-02-03T08:39:32;21.80;;;15.05;;
47784;SDS011;35233;55.686;37.848;2023-02-03T08:41:59;23.63;;;15.52;;
47784;SDS011;35233;55.686;37.848;2023-02-03T08:44:25;22.05;;;14.15;;
47784;SDS011;35233;55.686;37.848;2023-02-03T08:46:51;21.08;;;14.05;;
47784;SDS011;35233;55.686;37.848;2023-02-03T08:49:17;24.38;;;14.50;;
47784;SDS011;35233;55.686;37.848;2023-02-03T08:51:44;21.85;;;14.43;;
47784;SDS011;35233;55.686;37.848;2023-02-03T08:54:10;20.58;;;14.90;;
47784;SDS011;35233;55.686;37.848;2023-02-03T08:56:36;23.52;;;15.63;;
47784;SDS011;35233;55.686;37.848;2023-02-03T08:59:02;23.83;;;15.27;;
47784;SDS011;35233;55.686;37.848;2023-02-03T09:01:27;23.20;;;14.68;;
47784;SDS011;35233;55.686;37.848;2023-02-03T09:03:53;21.52;;;14.63;;
47784;SDS011;35233;55.686;37.848;2023-02-03T09:06:19;22.15;;;15.40;;
47784;SDS011;35233;55.686;37.848;2023-02-03T09:08:46;20.48;;;15.13;;
47784;SDS011;35233;55.686;37.848;2023-02-03T09:11:12;20.55;;;14.93;;
47784;SDS011;35233;55.686;37.848;2023-02-03T09:13:40;21.73;;;15.27;;
47784;SDS011;35233;55.686;37.848;2023-02-03T09:16:09;22.13;;;15.00;;
47784;SDS011;35233;55.686;37.848;2023-02-03T09:18:35;23.75;;;15.60;;
47784;SDS011;35233;55.686;37.848;2023-02-03T09:21:05;20.95;;;15.02;;
47784;SDS011;35233;55.686;37.848;2023-02-03T09:23:32;24.40;;;15.38;;
47784;SDS011;35233;55.686;37.848;2023-02-03T09:26:02;25.60;;;16.35;;
47784;SDS011;35233;55.686;37.848;2023-02-03T09:28:31;23.83;;;15.55;;
47784;SDS011;35233;55.686;37.848;2023-02-03T09:31:01;25.48;;;14.93;;
47784;SDS011;35233;55.686;37.848;2023-02-03T09:33:27;23.77;;;16.48;;
47784;SDS011;35233;55.686;37.848;2023-02-03T09:35:53;22.80;;;15.55;;
47784;SDS011;35233;55.686;37.848;2023-02-03T09:38:19;21.95;;;15.20;;
47784;SDS011;35233;55.686;37.848;2023-02-03T09:40:46;26.50;;;16.98;;
47784;SDS011;35233;55.686;37.848;2023-02-03T09:43:34;23.58;;;16.02;;
47784;SDS011;35233;55.686;37.848;2023-02-03T09:46:06;22.70;;;15.20;;
47784;SDS011;35233;55.686;37.848;2023-02-03T09:49:05;21.27;;;15.23;;
47784;SDS011;35233;55.686;37.848;2023-02-03T09:52:51;24.13;;;15.60;;
47784;SDS011;35233;55.686;37.848;2023-02-03T09:55:02;21.45;;;15.27;;
47784;SDS011;35233;55.686;37.848;2023-02-03T09:57:54;23.65;;;16.30;;
47784;SDS011;35233;55.686;37.848;2023-02-03T10:01:09;21.70;;;14.30;;
47784;SDS011;35233;55.686;37.848;2023-02-03T10:03:29;23.15;;;15.02;;
47784;SDS011;35233;55.686;37.848;2023-02-03T10:08:49;20.20;;;14.57;;
47784;SDS011;35233;55.686;37.848;2023-02-03T10:16:37;20.08;;;14.15;;
47784;SDS011;35233;55.686;37.848;2023-02-03T10:19:15;20.20;;;14.88;;
47784;SDS011;35233;55.686;37.848;2023-02-03T10:21:49;19.13;;;13.63;;
47784;SDS011;35233;55.686;37.848;2023-02-03T10:24:41;21.60;;;14.10;;
47784;SDS011;35233;55.686;37.848;2023-02-03T10:27:16;21.40;;;14.68;;
47784;SDS011;35233;55.686;37.848;2023-02-03T10:29:44;20.60;;;14.10;;
47784;SDS011;35233;55.686;37.848;2023-02-03T10:32:18;20.97;;;13.97;;
47784;SDS011;35233;55.686;37.848;2023-02-03T10:34:44;19.48;;;14.40;;
47784;SDS011;35233;55.686;37.848;2023-02-03T10:39:47;18.30;;;13.70;;
47784;SDS011;35233;55.686;37.848;2023-02-03T10:42:14;19.60;;;13.18;;
47784;SDS011;35233;55.686;37.848;2023-02-03T10:44:42;18.42;;;13.38;;
47784;SDS011;35233;55.686;37.848;2023-02-03T10:47:30;16.60;;;12.85;;
47784;SDS011;35233;55.686;37.848;2023-02-03T10:50:24;18.45;;;13.32;;
47784;SDS011;35233;55.686;37.848;2023-02-03T10:55:43;23.52;;;13.48;;
47784;SDS011;35233;55.686;37.848;2023-02-03T10:58:13;17.75;;;12.50;;
47784;SDS011;35233;55.686;37.848;2023-02-03T11:00:41;16.50;;;12.60;;
47784;SDS011;35233;55.686;37.848;2023-02-03T11:05:39;16.98;;;11.95;;
47784;SDS011;35233;55.686;37.848;2023-02-03T11:08:09;16.67;;;11.45;;
47784;SDS011;35233;55.686;37.848;2023-02-03T11:13:25;17.38;;;11.30;;
47784;SDS011;35233;55.686;37.848;2023-02-03T11:15:51;16.98;;;11.48;;
47784;SDS011;35233;55.686;37.848;2023-02-03T11:21:22;16.40;;;12.00;;
47784;SDS011;35233;55.686;37.848;2023-02-03T11:23:50;17.30;;;11.38;;
47784;SDS011;35233;55.686;37.848;2023-02-03T11:26:27;14.68;;;11.10;;
47784;SDS011;35233;55.686;37.848;2023-02-03T11:28:57;14.10;;;10.45;;
47784;SDS011;35233;55.686;37.848;2023-02-03T11:31:26;16.25;;;10.73;;
47784;SDS011;35233;55.686;37.848;2023-02-03T11:34:00;14.57;;;10.75;;
47784;SDS011;35233;55.686;37.848;2023-02-03T11:36:30;17.55;;;10.98;;
47784;SDS011;35233;55.686;37.848;2023-02-03T11:41:54;15.82;;;10.68;;
47784;SDS011;35233;55.686;37.848;2023-02-03T11:47:11;14.63;;;10.30;;
47784;SDS011;35233;55.686;37.848;2023-02-03T11:57:26;15.68;;;9.88;;
47784;SDS011;35233;55.686;37.848;2023-02-03T12:10:38;15.35;;;9.32;;
47784;SDS011;35233;55.686;37.848;2023-02-03T12:13:09;13.02;;;9.00;;
47784;SDS011;35233;55.686;37.848;2023-02-03T12:16:21;15.00;;;9.13;;
47784;SDS011;35233;55.686;37.848;2023-02-03T12:18:51;14.77;;;9.73;;
47784;SDS011;35233;55.686;37.848;2023-02-03T12:21:50;11.93;;;9.02;;
47784;SDS011;35233;55.686;37.848;2023-02-03T12:29:39;12.13;;;8.77;;
47784;SDS011;35233;55.686;37.848;2023-02-03T12:43:25;14.00;;;8.95;;
47784;SDS011;35233;55.686;37.848;2023-02-03T12:46:06;13.10;;;8.95;;
47784;SDS011;35233;55.686;37.848;2023-02-03T12:48:40;20.30;;;9.10;;
47784;SDS011;35233;55.686;37.848;2023-02-03T12:51:17;12.65;;;8.95;;
47784;SDS011;35233;55.686;37.848;2023-02-03T12:53:56;13.57;;;9.27;;
47784;SDS011;35233;55.686;37.848;2023-02-03T12:56:29;13.07;;;8.98;;
47784;SDS011;35233;55.686;37.848;2023-02-03T12:59:05;12.02;;;8.82;;
47784;SDS011;35233;55.686;37.848;2023-02-03T13:01:41;14.65;;;9.38;;
47784;SDS011;35233;55.686;37.848;2023-02-03T13:07:06;11.55;;;8.80;;
47784;SDS011;35233;55.686;37.848;2023-02-03T13:10:02;12.88;;;9.57;;
47784;SDS011;35233;55.686;37.848;2023-02-03T13:12:30;13.27;;;9.32;;
47784;SDS011;35233;55.686;37.848;2023-02-03T13:15:18;13.52;;;9.50;;
47784;SDS011;35233;55.686;37.848;2023-02-03T13:20:23;13.75;;;9.52;;
47784;SDS011;35233;55.686;37.848;2023-02-03T13:22:51;11.98;;;9.23;;
47784;SDS011;35233;55.686;37.848;2023-02-03T13:25:24;12.70;;;9.77;;
47784;SDS011;35233;55.686;37.848;2023-02-03T13:35:48;13.27;;;9.85;;
47784;SDS011;35233;55.686;37.848;2023-02-03T13:41:46;12.60;;;9.13;;
47784;SDS011;35233;55.686;37.848;2023-02-03T13:44:19;15.20;;;10.07;;
47784;SDS011;35233;55.686;37.848;2023-02-03T13:46:50;14.45;;;9.15;;
47784;SDS011;35233;55.686;37.848;2023-02-03T13:49:30;13.65;;;9.45;;
47784;SDS011;35233;55.686;37.848;2023-02-03T13:51:58;13.10;;;9.30;;
47784;SDS011;35233;55.686;37.848;2023-02-03T13:54:26;12.18;;;9.38;;
47784;SDS011;35233;55.686;37.848;2023-02-03T13:57:14;14.23;;;9.35;;
47784;SDS011;35233;55.686;37.848;2023-02-03T13:59:45;14.32;;;9.88;;
47784;SDS011;35233;55.686;37.848;2023-02-03T14:07:31;13.23;;;9.98;;
47784;SDS011;35233;55.686;37.848;2023-02-03T14:15:19;12.77;;;9.68;;
47784;SDS011;35233;55.686;37.848;2023-02-03T14:26:01;13.20;;;9.63;;
47784;SDS011;35233;55.686;37.848;2023-02-03T14:28:37;12.15;;;9.32;;
47784;SDS011;35233;55.686;37.848;2023-02-03T14:31:12;13.18;;;9.45;;
47784;SDS011;35233;55.686;37.848;2023-02-03T14:36:35;12.27;;;8.90;;
47784;SDS011;35233;55.686;37.848;2023-02-03T14:47:09;13.55;;;8.95;;
47784;SDS011;35233;55.686;37.848;2023-02-03T14:57:49;12.88;;;9.05;;
47784;SDS011;35233;55.686;37.848;2023-02-03T15:05:36;12.60;;;9.43;;
47784;SDS011;35233;55.686;37.848;2023-02-03T15:10:57;14.20;;;9.73;;
47784;SDS011;35233;55.686;37.848;2023-02-03T15:13:27;12.45;;;9.55;;
47784;SDS011;35233;55.686;37.848;2023-02-03T15:15:55;13.23;;;9.98;;
47784;SDS011;35233;55.686;37.848;2023-02-03T15:18:35;16.33;;;10.48;;
47784;SDS011;35233;55.686;37.848;2023-02-03T15:21:02;14.18;;;9.73;;
47784;SDS011;35233;55.686;37.848;2023-02-03T15:23:29;14.38;;;9.73;;
47784;SDS011;35233;55.686;37.848;2023-02-03T15:26:11;14.50;;;10.63;;
47784;SDS011;35233;55.686;37.848;2023-02-03T15:28:42;15.98;;;11.55;;
47784;SDS011;35233;55.686;37.848;2023-02-03T15:37:18;16.58;;;10.38;;
47784;SDS011;35233;55.686;37.848;2023-02-03T15:40:00;22.92;;;11.55;;
47784;SDS011;35233;55.686;37.848;2023-02-03T15:45:07;14.10;;;10.02;;
47784;SDS011;35233;55.686;37.848;2023-02-03T15:47:56;14.35;;;10.43;;
47784;SDS011;35233;55.686;37.848;2023-02-03T15:53:06;14.60;;;10.52;;
47784;SDS011;35233;55.686;37.848;2023-02-03T15:55:40;15.45;;;10.88;;
47784;SDS011;35233;55.686;37.848;2023-02-03T15:58:16;16.67;;;10.55;;
47784;SDS011;35233;55.686;37.848;2023-02-03T16:00:51;14.98;;;9.98;;
47784;SDS011;35233;55.686;37.848;2023-02-03T16:03:26;14.15;;;10.13;;
47784;SDS011;35233;55.686;37.848;2023-02-03T16:08:42;15.80;;;11.35;;
47784;SDS011;35233;55.686;37.848;2023-02-03T16:14:06;14.57;;;10.73;;
47784;SDS011;35233;55.686;37.848;2023-02-03T16:19:05;14.55;;;10.82;;
47784;SDS011;35233;55.686;37.848;2023-02-03T16:24:33;17.00;;;10.35;;
47784;SDS011;35233;55.686;37.848;2023-02-03T16:29:52;16.05;;;10.45;;
47784;SDS011;35233;55.686;37.848;2023-02-03T16:32:38;14.48;;;10.15;;
47784;SDS011;35233;55.686;37.848;2023-02-03T16:35:22;14.20;;;9.23;;
47784;SDS011;35233;55.686;37.848;2023-02-03T16:38:09;14.33;;;9.87;;
47784;SDS011;35233;55.686;37.848;2023-02-03T16:40:59;15.45;;;10.65;;
47784;SDS011;35233;55.686;37.848;2023-02-03T16:43:44;15.48;;;9.70;;
47784;SDS011;35233;55.686;37.848;2023-02-03T16:46:34;13.90;;;9.63;;
47784;SDS011;35233;55.686;37.848;2023-02-03T16:49:19;12.68;;;9.95;;
47784;SDS011;35233;55.686;37.848;2023-02-03T16:52:15;13.75;;;9.45;;
47784;SDS011;35233;55.686;37.848;2023-02-03T16:54:41;13.68;;;9.50;;
47784;SDS011;35233;55.686;37.848;2023-02-03T16:57:07;13.35;;;10.20;;
47784;SDS011;35233;55.686;37.848;2023-02-03T16:59:32;14.77;;;9.65;;
47784;SDS011;35233;55.686;37.848;2023-02-03T17:01:58;12.27;;;9.23;;
47784;SDS011;35233;55.686;37.848;2023-02-03T17:04:24;14.32;;;9.30;;
47784;SDS011;35233;55.686;37.848;2023-02-03T17:06:50;14.10;;;9.52;;
47784;SDS011;35233;55.686;37.848;2023-02-03T17:09:18;12.80;;;9.77;;
47784;SDS011;35233;55.686;37.848;2023-02-03T17:11:47;12.32;;;9.18;;
47784;SDS011;35233;55.686;37.848;2023-02-03T17:14:13;13.30;;;9.75;;
47784;SDS011;35233;55.686;37.848;2023-02-03T17:16:39;13.82;;;9.80;;
47784;SDS011;35233;55.686;37.848;2023-02-03T17:19:08;13.27;;;9.57;;
47784;SDS011;35233;55.686;37.848;2023-02-03T17:21:34;13.20;;;9.23;;
47784;SDS011;35233;55.686;37.848;2023-02-03T17:24:00;16.88;;;9.85;;
47784;SDS011;35233;55.686;37.848;2023-02-03T17:26:26;11.60;;;9.30;;
47784;SDS011;35233;55.686;37.848;2023-02-03T17:28:51;13.95;;;9.70;;
47784;SDS011;35233;55.686;37.848;2023-02-03T17:31:18;14.93;;;9.48;;
47784;SDS011;35233;55.686;37.848;2023-02-03T17:33:44;13.43;;;8.60;;